Time;durP1;ratioP1;P1;durP2;ratioP2;P2;SDS_P1;SDS_P2;PMS_P1;PMS_P2;Temp;Humidity;BMP_temperature;BMP_pressure;BME280_temperature;BME280_humidity;BME280_pressure;Samples;Min_cycle;Max_cycle;Signal;HPM_P1;HPM_P2
2021/01/07 02:22:15;;;;;;;;;;;;;;;;;;;;;
2021/01/07 02:28:32;;;;;;;;;;;;;;;;;;;;;
2021/01/07 02:38:16;;;;;;;10.30;5.45;;;;;;;;;;4916347;29;20949;-88
2021/01/07 02:44:26;;;;;;;13.13;5.78;;;;;;;;;;4864626;29;20468;-87
2021/01/07 02:47:00;;;;;;;9.48;5.63;;;;;;;;;;4857053;29;20468;-87
2021/01/07 02:59:10;;;;;;;10.07;5.57;;;;;;;;;;4937687;28;20454;-88
2021/01/07 03:01:42;;;;;;;8.65;5.28;;;;;;;;;;4924509;28;20414;-87
2021/01/07 03:04:36;;;;;;;10.20;5.77;;;;;;;;;;4925338;29;20476;-85
2021/01/07 03:07:30;;;;;;;10.95;5.93;;;;;;;;;;4941654;28;20548;-87
2021/01/07 03:10:35;;;;;;;10.80;5.60;;;;;;;;;;4918621;29;20532;-86
2021/01/07 03:13:14;;;;;;;10.32;5.70;;;;;;;;;;4918604;29;20456;-88
2021/01/07 03:16:23;;;;;;;9.10;4.80;;;;;;;;;;4908312;29;20433;-86
2021/01/07 03:19:02;;;;;;;8.80;4.70;;;;;;;;;;4873693;29;20435;-85
2021/01/07 03:21:45;;;;;;;9.60;4.88;;;;;;;;;;4864068;29;20464;-86
2021/01/07 03:24:44;;;;;;;;;;;;;;;;;;;;;
2021/01/07 03:30:13;;;;;;;9.63;5.37;;;;;;;;;;4865229;29;20569;-85
2021/01/07 03:33:01;;;;;;;9.25;5.57;;;;;;;;;;4921982;29;20936;-85
2021/01/07 03:35:39;;;;;;;;;;;;;;;;;;;;;
2021/01/07 03:38:11;;;;;;;9.45;5.00;;;;;;;;;;4918712;29;20903;-87
2021/01/07 03:40:57;;;;;;;10.40;5.50;;;;;;;;;;4907178;29;20451;-86
2021/01/07 03:43:46;;;;;;;9.18;5.43;;;;;;;;;;4912406;29;20485;-87
2021/01/07 03:46:24;;;;;;;11.38;5.53;;;;;;;;;;4903222;29;20593;-86
2021/01/07 03:48:52;;;;;;;10.10;5.78;;;;;;;;;;4904877;29;20457;-87
2021/01/07 03:51:54;;;;;;;;;;;;;;;;;;;;;
2021/01/07 03:55:10;;;;;;;10.77;5.15;;;;;;;;;;4923291;29;20459;-85
2021/01/07 03:57:45;;;;;;;10.32;5.03;;;;;;;;;;4909904;29;20454;-85
2021/01/07 04:00:17;;;;;;;11.55;5.28;;;;;;;;;;4913844;29;20498;-87
2021/01/07 04:02:53;;;;;;;9.25;5.07;;;;;;;;;;4908965;29;20529;-85
2021/01/07 04:05:34;;;;;;;10.18;5.22;;;;;;;;;;4902653;29;20564;-88
2021/01/07 04:14:38;;;;;;;;;;;;;;;;;;;;;
2021/01/07 04:17:20;;;;;;;11.50;5.20;;;;;;;;;;4933677;29;20458;-87
2021/01/07 04:20:20;;;;;;;11.50;5.32;;;;;;;;;;4917887;29;20490;-87
2021/01/07 04:23:17;;;;;;;10.15;5.93;;;;;;;;;;4926009;28;20828;-87
2021/01/07 04:26:17;;;;;;;10.20;5.78;;;;;;;;;;4914927;28;20928;-87
2021/01/07 04:29:00;;;;;;;12.30;6.30;;;;;;;;;;4895830;29;20481;-86
2021/01/07 04:31:49;;;;;;;10.48;6.15;;;;;;;;;;4886079;29;20496;-84
2021/01/07 04:34:29;;;;;;;9.77;6.40;;;;;;;;;;4910329;29;20463;-86
2021/01/07 04:37:04;;;;;;;12.63;7.50;;;;;;;;;;4901774;29;20744;-85
2021/01/07 04:39:41;;;;;;;11.35;7.10;;;;;;;;;;4915577;29;20463;-88
2021/01/07 04:46:02;;;;;;;13.65;8.55;;;;;;;;;;4869116;29;20534;-85
2021/01/07 04:48:38;;;;;;;13.90;9.27;;;;;;;;;;4856815;29;20509;-88
2021/01/07 04:51:22;;;;;;;15.45;9.40;;;;;;;;;;4894885;29;20441;-86
2021/01/07 04:54:23;;;;;;;;;;;;;;;;;;;;;
2021/01/07 04:57:16;;;;;;;16.08;10.45;;;;;;;;;;4928303;29;20481;-86
2021/01/07 04:59:51;;;;;;;16.83;10.60;;;;;;;;;;4921091;29;20455;-86
2021/01/07 05:02:30;;;;;;;18.65;11.20;;;;;;;;;;4933200;29;20422;-88
2021/01/07 05:05:27;;;;;;;17.77;12.38;;;;;;;;;;4937838;28;20469;-86
2021/01/07 05:08:16;;;;;;;18.77;12.38;;;;;;;;;;4936715;28;20490;-87
2021/01/07 05:11:21;;;;;;;;;;;;;;;;;;;;;
2021/01/07 05:14:06;;;;;;;18.73;12.27;;;;;;;;;;4938453;28;20488;-88
2021/01/07 05:19:58;;;;;;;20.38;13.52;;;;;;;;;;4940819;28;20483;-87
2021/01/07 05:22:35;;;;;;;19.35;12.95;;;;;;;;;;4950002;28;20494;-85
2021/01/07 05:28:16;;;;;;;23.33;13.32;;;;;;;;;;4936455;28;20470;-86
2021/01/07 05:31:10;;;;;;;17.52;12.55;;;;;;;;;;4919785;29;20438;-84
2021/01/07 05:34:07;;;;;;;;;;;;;;;;;;;;;
2021/01/07 05:37:08;;;;;;;18.23;12.05;;;;;;;;;;4949868;28;20500;-86
2021/01/07 05:39:51;;;;;;;21.23;13.27;;;;;;;;;;4926732;28;20945;-86
2021/01/07 05:42:58;;;;;;;16.88;12.43;;;;;;;;;;4929956;28;20413;-87
2021/01/07 05:45:44;;;;;;;18.15;12.60;;;;;;;;;;4919662;29;20413;-86
2021/01/07 05:48:46;;;;;;;19.42;12.90;;;;;;;;;;4946036;28;20416;-86
2021/01/07 05:51:17;;;;;;;18.23;13.38;;;;;;;;;;4926650;29;20770;-85
2021/01/07 05:54:10;;;;;;;;;;;;;;;;;;;;;
2021/01/07 05:57:26;;;;;;;18.40;12.77;;;;;;;;;;4941495;28;20437;-84
2021/01/07 06:03:25;;;;;;;20.95;14.85;;;;;;;;;;4940168;28;21066;-88
2021/01/07 06:09:34;;;;;;;;;;;;;;;;;;;;;
2021/01/07 06:35:23;;;;;;;20.30;15.18;;;;;;;;;;4863971;29;20472;-87
2021/01/07 06:38:39;;;;;;;20.73;15.88;;;;;;;;;;4854115;29;20490;-86
2021/01/07 06:47:34;;;;;;;22.67;17.30;;;;;;;;;;4875847;29;20437;-87
2021/01/07 06:50:48;;;;;;;23.70;16.92;;;;;;;;;;4919924;29;20510;-85
2021/01/07 06:53:29;;;;;;;24.08;18.00;;;;;;;;;;4871001;29;21051;-86
2021/01/07 08:16:49;;;;;;;13.90;9.82;;;;;;;;;;4952575;28;20613;-88
2021/01/07 13:27:08;;;;;;;9.40;3.53;;;;;;;;;;4839479;29;20511;-90
2021/01/07 16:14:31;;;;;;;2.22;0.70;;;;;;;;;;5498677;24;20892;-83
2021/01/07 16:24:16;;;;;;;2.23;0.70;;;;;;;;;;4742123;30;20489;-84
2021/01/07 16:27:15;;;;;;;2.85;1.38;;;;;;;;;;4745056;30;20502;-84
2021/01/07 16:33:32;;;;;;;;;;;;;;;;;;;;;
2021/01/07 16:59:23;;;;;;;;;;;;;;;;;;;;;
2021/01/07 21:45:12;;;;;;;4.95;2.17;;;;;;;;;;4148491;24;20458;-85
2021/01/07 21:48:01;;;;;;;4.95;1.98;;;;;;;;;;4732583;30;20918;-84
2021/01/07 22:10:08;;;;;;;;;;;;;;;;;;;;;
2021/01/07 22:12:37;;;;;;;;;;;;;;;;;;;;;
2021/01/07 22:15:44;;;;;;;;;;;;;;;;;;;;;
2021/01/07 22:18:58;;;;;;;;;;;;;;;;;;;;;
2021/01/07 22:21:53;;;;;;;5.47;2.10;;;;;;;;;;4604501;31;20450;-84
2021/01/07 22:31:05;;;;;;;;;;;;;;;;;;;;;
2021/01/07 22:39:39;;;;;;;3.28;1.90;;;;;;;;;;4707583;30;21146;-84
2021/01/07 22:42:40;;;;;;;;;;;;;;;;;;;;;
2021/01/07 22:48:57;;;;;;;;;;;;;;;;;;;;;
2021/01/07 23:02:09;;;;;;;3.45;2.00;;;;;;;;;;4558124;31;20442;-84
2021/01/07 23:05:11;;;;;;;;;;;;;;;;;;;;;
2021/01/07 23:08:14;;;;;;;;;;;;;;;;;;;;;
2021/01/07 23:14:13;;;;;;;4.65;2.20;;;;;;;;;;4660536;30;20570;-84
2021/01/07 23:16:53;;;;;;;4.80;2.17;;;;;;;;;;4735645;30;20509;-84
2021/01/07 23:19:38;;;;;;;3.53;2.25;;;;;;;;;;4758783;30;20532;-84
2021/01/07 23:22:30;;;;;;;4.80;1.90;;;;;;;;;;4742492;30;20487;-82
2021/01/07 23:25:32;;;;;;;;;;;;;;;;;;;;;
2021/01/07 23:43:38;;;;;;;;;;;;;;;;;;;;;
2021/01/07 23:46:56;;;;;;;4.68;2.35;;;;;;;;;;4728363;30;20434;-82
2021/01/07 23:50:03;;;;;;;5.65;2.33;;;;;;;;;;4747363;30;20534;-84
2021/01/07 23:53:08;;;;;;;6.70;2.50;;;;;;;;;;4732356;30;20658;-84
2021/01/07 23:56:37;;;;;;;;;;;;;;;;;;;;;
